< < Back
Terminal Aerodrome Forecast


Current Version              Previous Versions:   1  2  3  4  5  6  7  8  9  

Terminal Aerodrome Forecast

041
FTUS42 KJAX 130525
TAFGNV
TAF
KGNV 130525Z 1306/1406 26010KT P6SM SCT015
     FM131000 31007KT P6SM SKC
     FM131500 35011G20KT P6SM SKC
     FM140000 35004KT P6SM SKC=

Latest METAR

731
SAUS70 KWBC 131300 RRE
MTRGNV
METAR KGNV 131253Z 32005KT 10SM CLR 10/07 A3025 RMK AO2 SLP244
T01000067


USA.gov is the U.S. government's official web portal to all federal, state and local government web resources and services.